AUA53T LZKZ-LOWS
Flight info
| Callsign | AUA53T |
|---|---|
| Flight time | 0h 54m |
| Altitude | 36000 |
| Route | TAKOS1C/01 TAKOS DCT TOVKA DCT MATIG MATIG2R |
| Aircraft | A320/M-SDE3FGHIRWY/LB1 |
Departure
| Time | 2026-04-22 18:01 |
|---|---|
| Airport | Košice International Airport (LZKZ) |
Arrival
| Time | 2026-04-22 18:56 |
|---|---|
| Airport | Salzburg Airport (LOWS) |
| Time | Latitude | Longitude | Altitude | Speed | Heading |
|---|---|---|---|---|---|
| 2026-04-22 17:27 | 48.67330 | 21.23845 | 755 ft | 0 kts | 233° |
| 2026-04-22 17:52 | 48.67329 | 21.23844 | 757 ft | 1 kts | 233° |
| 2026-04-22 17:52 | 48.67305 | 21.23833 | 757 ft | 5 kts | 161° |
| 2026-04-22 17:53 | 48.67297 | 21.23906 | 757 ft | 10 kts | 95° |
| 2026-04-22 17:53 | 48.67285 | 21.24048 | 757 ft | 15 kts | 104° |
| 2026-04-22 17:53 | 48.67260 | 21.24208 | 756 ft | 16 kts | 103° |
| 2026-04-22 17:53 | 48.67234 | 21.24375 | 758 ft | 17 kts | 103° |
| 2026-04-22 17:54 | 48.67208 | 21.24551 | 758 ft | 18 kts | 103° |
| 2026-04-22 17:54 | 48.67183 | 21.24709 | 756 ft | 11 kts | 110° |
| 2026-04-22 17:54 | 48.67127 | 21.24747 | 755 ft | 9 kts | 185° |
| 2026-04-22 17:54 | 48.67032 | 21.24716 | 757 ft | 18 kts | 193° |
| 2026-04-22 17:55 | 48.66879 | 21.24665 | 754 ft | 25 kts | 192° |
| 2026-04-22 17:55 | 48.66712 | 21.24607 | 757 ft | 25 kts | 192° |
| 2026-04-22 17:55 | 48.66541 | 21.24547 | 757 ft | 26 kts | 193° |
| 2026-04-22 17:55 | 48.66362 | 21.24484 | 757 ft | 27 kts | 193° |
| 2026-04-22 17:56 | 48.66177 | 21.24419 | 757 ft | 27 kts | 193° |
| 2026-04-22 17:56 | 48.65997 | 21.24354 | 756 ft | 26 kts | 194° |
| 2026-04-22 17:56 | 48.65817 | 21.24290 | 757 ft | 27 kts | 193° |
| 2026-04-22 17:56 | 48.65660 | 21.24236 | 755 ft | 22 kts | 193° |
| 2026-04-22 17:57 | 48.65516 | 21.24186 | 757 ft | 20 kts | 193° |
| 2026-04-22 17:57 | 48.65385 | 21.24141 | 757 ft | 18 kts | 192° |
| 2026-04-22 17:57 | 48.65265 | 21.24101 | 757 ft | 17 kts | 193° |
| 2026-04-22 17:57 | 48.65158 | 21.24064 | 752 ft | 15 kts | 193° |
| 2026-04-22 17:58 | 48.65061 | 21.24031 | 757 ft | 14 kts | 193° |
| 2026-04-22 17:58 | 48.64974 | 21.23999 | 757 ft | 12 kts | 198° |
| 2026-04-22 17:58 | 48.64912 | 21.23927 | 757 ft | 11 kts | 238° |
| 2026-04-22 17:58 | 48.64901 | 21.23827 | 753 ft | 9 kts | 275° |
| 2026-04-22 17:59 | 48.64930 | 21.23734 | 754 ft | 10 kts | 315° |
| 2026-04-22 17:59 | 48.64988 | 21.23669 | 756 ft | 10 kts | 342° |
| 2026-04-22 17:59 | 48.65049 | 21.23681 | 758 ft | 3 kts | 12° |
| 2026-04-22 18:00 | 48.65061 | 21.23685 | 755 ft | 9 kts | 12° |
| 2026-04-22 18:01 | 48.65355 | 21.23787 | 757 ft | 79 kts | 13° |
| 2026-04-22 18:01 | 48.66099 | 21.24046 | 753 ft | 138 kts | 13° |
| 2026-04-22 18:01 | 48.67146 | 21.24411 | 1066 ft | 157 kts | 13° |
| 2026-04-22 18:01 | 48.68205 | 21.24777 | 1787 ft | 156 kts | 12° |
| 2026-04-22 18:02 | 48.69274 | 21.25141 | 2435 ft | 163 kts | 11° |
| 2026-04-22 18:02 | 48.70453 | 21.25552 | 2788 ft | 183 kts | 11° |
| 2026-04-22 18:02 | 48.71749 | 21.26004 | 3275 ft | 196 kts | 11° |
| 2026-04-22 18:02 | 48.73077 | 21.26472 | 4020 ft | 197 kts | 11° |
| 2026-04-22 18:03 | 48.74418 | 21.26941 | 4704 ft | 200 kts | 9° |
| 2026-04-22 18:03 | 48.75861 | 21.26800 | 5042 ft | 222 kts | 338° |
| 2026-04-22 18:03 | 48.77104 | 21.25245 | 5438 ft | 249 kts | 302° |
| 2026-04-22 18:03 | 48.77478 | 21.22631 | 6204 ft | 267 kts | 269° |
| 2026-04-22 18:04 | 48.77289 | 21.20772 | 6805 ft | 271 kts | 261° |
| 2026-04-22 18:04 | 48.76075 | 21.14668 | 8727 ft | 281 kts | 254° |
| 2026-04-22 18:04 | 48.75443 | 21.11850 | 9575 ft | 285 kts | 254° |
| 2026-04-22 18:05 | 48.74810 | 21.08947 | 10308 ft | 293 kts | 254° |
| 2026-04-22 18:05 | 48.74176 | 21.05916 | 10570 ft | 316 kts | 255° |
| 2026-04-22 18:05 | 48.73506 | 21.02613 | 10794 ft | 339 kts | 255° |
| 2026-04-22 18:05 | 48.72811 | 20.99129 | 11288 ft | 350 kts | 255° |
| 2026-04-22 18:06 | 48.72104 | 20.95565 | 11963 ft | 356 kts | 256° |
| 2026-04-22 18:06 | 48.71391 | 20.91948 | 12664 ft | 361 kts | 256° |
| 2026-04-22 18:06 | 48.70891 | 20.88213 | 13314 ft | 365 kts | 264° |
| 2026-04-22 18:06 | 48.70521 | 20.84377 | 13956 ft | 371 kts | 265° |
| 2026-04-22 18:07 | 48.70162 | 20.80484 | 14553 ft | 376 kts | 265° |
| 2026-04-22 18:07 | 48.69802 | 20.76527 | 15165 ft | 381 kts | 265° |
| 2026-04-22 18:07 | 48.69435 | 20.72527 | 15806 ft | 385 kts | 265° |
| 2026-04-22 18:07 | 48.69059 | 20.68490 | 16400 ft | 390 kts | 264° |
| 2026-04-22 18:08 | 48.68673 | 20.64405 | 17030 ft | 394 kts | 264° |
| 2026-04-22 18:08 | 48.68279 | 20.60286 | 17628 ft | 399 kts | 264° |
| 2026-04-22 18:08 | 48.67877 | 20.56105 | 18223 ft | 403 kts | 264° |
| 2026-04-22 18:08 | 48.67471 | 20.51889 | 18751 ft | 408 kts | 264° |
| 2026-04-22 18:09 | 48.67060 | 20.47618 | 19252 ft | 412 kts | 264° |
| 2026-04-22 18:09 | 48.66642 | 20.43295 | 19716 ft | 417 kts | 264° |
| 2026-04-22 18:09 | 48.66218 | 20.38937 | 20216 ft | 422 kts | 264° |
| 2026-04-22 18:09 | 48.65787 | 20.34518 | 20693 ft | 427 kts | 264° |
| 2026-04-22 18:10 | 48.65351 | 20.30055 | 21186 ft | 431 kts | 264° |
| 2026-04-22 18:10 | 48.64908 | 20.25544 | 21628 ft | 436 kts | 264° |
| 2026-04-22 18:10 | 48.64457 | 20.20992 | 22089 ft | 440 kts | 264° |
| 2026-04-22 18:10 | 48.63999 | 20.16393 | 22553 ft | 444 kts | 264° |
| 2026-04-22 18:11 | 48.63543 | 20.11818 | 23019 ft | 448 kts | 264° |
| 2026-04-22 18:11 | 48.63076 | 20.07149 | 23504 ft | 450 kts | 264° |
| 2026-04-22 18:11 | 48.62605 | 20.02453 | 23903 ft | 454 kts | 263° |
| 2026-04-22 18:11 | 48.62126 | 19.97716 | 24241 ft | 458 kts | 263° |
| 2026-04-22 18:12 | 48.61641 | 19.92944 | 24575 ft | 462 kts | 263° |
| 2026-04-22 18:12 | 48.61151 | 19.88131 | 24863 ft | 466 kts | 263° |
| 2026-04-22 18:12 | 48.60816 | 19.84846 | 25053 ft | 469 kts | 263° |
| 2026-04-22 18:12 | 48.60152 | 19.78360 | 25452 ft | 475 kts | 263° |
| 2026-04-22 18:13 | 48.59642 | 19.73416 | 25768 ft | 478 kts | 263° |
| 2026-04-22 18:13 | 48.59125 | 19.68431 | 26090 ft | 482 kts | 263° |
| 2026-04-22 18:13 | 48.58604 | 19.63418 | 26390 ft | 485 kts | 263° |
| 2026-04-22 18:13 | 48.58077 | 19.58366 | 26689 ft | 489 kts | 263° |
| 2026-04-22 18:14 | 48.57546 | 19.53274 | 26968 ft | 492 kts | 263° |
| 2026-04-22 18:14 | 48.57009 | 19.48156 | 27244 ft | 495 kts | 263° |
| 2026-04-22 18:14 | 48.56463 | 19.43004 | 27530 ft | 499 kts | 262° |
| 2026-04-22 18:14 | 48.55907 | 19.37827 | 27809 ft | 501 kts | 262° |
| 2026-04-22 18:15 | 48.55346 | 19.32610 | 28082 ft | 504 kts | 262° |
| 2026-04-22 18:15 | 48.54785 | 19.27380 | 28390 ft | 506 kts | 262° |
| 2026-04-22 18:15 | 48.54220 | 19.22125 | 28667 ft | 509 kts | 262° |
| 2026-04-22 18:15 | 48.53649 | 19.16832 | 28932 ft | 512 kts | 262° |
| 2026-04-22 18:16 | 48.53073 | 19.11521 | 29140 ft | 515 kts | 262° |
| 2026-04-22 18:16 | 48.52489 | 19.06177 | 29375 ft | 518 kts | 262° |
| 2026-04-22 18:16 | 48.51899 | 19.00811 | 29598 ft | 520 kts | 262° |
| 2026-04-22 18:16 | 48.51303 | 18.95414 | 29856 ft | 522 kts | 261° |
| 2026-04-22 18:17 | 48.50704 | 18.90021 | 30146 ft | 522 kts | 261° |
| 2026-04-22 18:17 | 48.50101 | 18.84616 | 30405 ft | 523 kts | 261° |
| 2026-04-22 18:17 | 48.49500 | 18.79227 | 30717 ft | 522 kts | 262° |
| 2026-04-22 18:17 | 48.48898 | 18.73834 | 31057 ft | 519 kts | 262° |
| 2026-04-22 18:18 | 48.48295 | 18.68491 | 31399 ft | 517 kts | 261° |
| 2026-04-22 18:18 | 48.47690 | 18.63166 | 31774 ft | 514 kts | 262° |
| 2026-04-22 18:18 | 48.47089 | 18.57880 | 32157 ft | 511 kts | 262° |
| 2026-04-22 18:18 | 48.46488 | 18.52618 | 32522 ft | 508 kts | 262° |
| 2026-04-22 18:19 | 48.45888 | 18.47393 | 32943 ft | 504 kts | 262° |
| 2026-04-22 18:19 | 48.45291 | 18.42217 | 33388 ft | 499 kts | 262° |
| 2026-04-22 18:19 | 48.44701 | 18.37091 | 33781 ft | 496 kts | 262° |
| 2026-04-22 18:19 | 48.44114 | 18.31993 | 34151 ft | 493 kts | 262° |
| 2026-04-22 18:20 | 48.43546 | 18.26997 | 34460 ft | 490 kts | 263° |
| 2026-04-22 18:20 | 48.43088 | 18.21930 | 34744 ft | 487 kts | 266° |
| 2026-04-22 18:20 | 48.42756 | 18.16791 | 35019 ft | 485 kts | 268° |
| 2026-04-22 18:20 | 48.42513 | 18.11796 | 35275 ft | 484 kts | 269° |
| 2026-04-22 18:21 | 48.42299 | 18.06753 | 35519 ft | 482 kts | 269° |
| 2026-04-22 18:21 | 48.42074 | 18.01720 | 35762 ft | 482 kts | 268° |
| 2026-04-22 18:21 | 48.41815 | 17.96696 | 35995 ft | 481 kts | 268° |
| 2026-04-22 18:21 | 48.41523 | 17.91690 | 36127 ft | 481 kts | 267° |
| 2026-04-22 18:22 | 48.41208 | 17.86672 | 36173 ft | 481 kts | 266° |
| 2026-04-22 18:22 | 48.40550 | 17.76656 | 36176 ft | 481 kts | 266° |
| 2026-04-22 18:23 | 48.39900 | 17.66623 | 36177 ft | 481 kts | 267° |
| 2026-04-22 18:23 | 48.39261 | 17.56602 | 36186 ft | 481 kts | 267° |
| 2026-04-22 18:24 | 48.38298 | 17.41621 | 36170 ft | 479 kts | 266° |
| 2026-04-22 18:25 | 48.37306 | 17.26682 | 36184 ft | 479 kts | 266° |
| 2026-04-22 18:25 | 48.36634 | 17.16723 | 36188 ft | 478 kts | 266° |
| 2026-04-22 18:26 | 48.35604 | 17.01802 | 36192 ft | 478 kts | 266° |
| 2026-04-22 18:26 | 48.34909 | 16.91921 | 36191 ft | 478 kts | 266° |
| 2026-04-22 18:27 | 48.34201 | 16.81917 | 36199 ft | 479 kts | 266° |
| 2026-04-22 18:27 | 48.33488 | 16.71971 | 36199 ft | 479 kts | 266° |
| 2026-04-22 18:28 | 48.32761 | 16.62025 | 36201 ft | 479 kts | 266° |
| 2026-04-22 18:28 | 48.32025 | 16.52096 | 36196 ft | 478 kts | 266° |
| 2026-04-22 18:29 | 48.31281 | 16.42165 | 36215 ft | 477 kts | 266° |
| 2026-04-22 18:29 | 48.30536 | 16.32272 | 36224 ft | 477 kts | 266° |
| 2026-04-22 18:30 | 48.29399 | 16.17506 | 36198 ft | 476 kts | 266° |
| 2026-04-22 18:30 | 48.29017 | 16.12573 | 35856 ft | 476 kts | 265° |
| 2026-04-22 18:31 | 48.28627 | 16.07623 | 35494 ft | 477 kts | 265° |
| 2026-04-22 18:31 | 48.28230 | 16.02617 | 35113 ft | 477 kts | 265° |
| 2026-04-22 18:31 | 48.27841 | 15.97728 | 34764 ft | 478 kts | 265° |
| 2026-04-22 18:31 | 48.27446 | 15.92766 | 34419 ft | 479 kts | 265° |
| 2026-04-22 18:32 | 48.27048 | 15.87801 | 34044 ft | 481 kts | 265° |
| 2026-04-22 18:32 | 48.26645 | 15.82814 | 33624 ft | 483 kts | 265° |
| 2026-04-22 18:32 | 48.26238 | 15.77787 | 33228 ft | 486 kts | 265° |
| 2026-04-22 18:32 | 48.25830 | 15.72747 | 32829 ft | 488 kts | 265° |
| 2026-04-22 18:33 | 48.25416 | 15.67670 | 32433 ft | 491 kts | 265° |
| 2026-04-22 18:33 | 48.24998 | 15.62575 | 32045 ft | 494 kts | 264° |
| 2026-04-22 18:33 | 48.24573 | 15.57459 | 31642 ft | 496 kts | 264° |
| 2026-04-22 18:33 | 48.24147 | 15.52329 | 31275 ft | 495 kts | 264° |
| 2026-04-22 18:34 | 48.23719 | 15.47201 | 30893 ft | 494 kts | 264° |
| 2026-04-22 18:34 | 48.23290 | 15.42095 | 30527 ft | 495 kts | 264° |
| 2026-04-22 18:34 | 48.22857 | 15.36953 | 30140 ft | 497 kts | 264° |
| 2026-04-22 18:34 | 48.22416 | 15.31799 | 29702 ft | 498 kts | 264° |
| 2026-04-22 18:35 | 48.21971 | 15.26632 | 29268 ft | 498 kts | 264° |
| 2026-04-22 18:35 | 48.21529 | 15.21501 | 28849 ft | 497 kts | 264° |
| 2026-04-22 18:35 | 48.21087 | 15.16379 | 28430 ft | 494 kts | 264° |
| 2026-04-22 18:35 | 48.20645 | 15.11280 | 27996 ft | 490 kts | 264° |
| 2026-04-22 18:36 | 48.20207 | 15.06250 | 27594 ft | 484 kts | 264° |
| 2026-04-22 18:36 | 48.19775 | 15.01267 | 27196 ft | 480 kts | 264° |
| 2026-04-22 18:36 | 48.19344 | 14.96318 | 26802 ft | 477 kts | 264° |
| 2026-04-22 18:36 | 48.18913 | 14.91423 | 26411 ft | 474 kts | 264° |
| 2026-04-22 18:37 | 48.18479 | 14.86544 | 26025 ft | 470 kts | 264° |
| 2026-04-22 18:37 | 48.18044 | 14.81699 | 25643 ft | 467 kts | 264° |
| 2026-04-22 18:37 | 48.17756 | 14.78514 | 25401 ft | 465 kts | 264° |
| 2026-04-22 18:37 | 48.17177 | 14.72134 | 24908 ft | 461 kts | 264° |
| 2026-04-22 18:38 | 48.16744 | 14.67395 | 24542 ft | 458 kts | 264° |
| 2026-04-22 18:38 | 48.16310 | 14.62677 | 24167 ft | 454 kts | 264° |
| 2026-04-22 18:38 | 48.15884 | 14.58049 | 23804 ft | 444 kts | 264° |
| 2026-04-22 18:39 | 48.15058 | 14.49092 | 22959 ft | 425 kts | 264° |
| 2026-04-22 18:39 | 48.14657 | 14.44752 | 22546 ft | 417 kts | 264° |
| 2026-04-22 18:39 | 48.14259 | 14.40476 | 22138 ft | 411 kts | 264° |
| 2026-04-22 18:39 | 48.13869 | 14.36311 | 21759 ft | 395 kts | 264° |
| 2026-04-22 18:40 | 48.13492 | 14.32306 | 21158 ft | 384 kts | 265° |
| 2026-04-22 18:40 | 48.13121 | 14.28385 | 20433 ft | 378 kts | 265° |
| 2026-04-22 18:40 | 48.12752 | 14.24521 | 19702 ft | 373 kts | 265° |
| 2026-04-22 18:40 | 48.12386 | 14.20702 | 18984 ft | 368 kts | 265° |
| 2026-04-22 18:41 | 48.12024 | 14.16933 | 18244 ft | 364 kts | 265° |
| 2026-04-22 18:41 | 48.11666 | 14.13196 | 17753 ft | 362 kts | 265° |
| 2026-04-22 18:41 | 48.11311 | 14.09483 | 17259 ft | 360 kts | 265° |
| 2026-04-22 18:41 | 48.10957 | 14.05783 | 16819 ft | 358 kts | 265° |
| 2026-04-22 18:42 | 48.10605 | 14.02117 | 16398 ft | 356 kts | 265° |
| 2026-04-22 18:42 | 48.10255 | 13.98465 | 15989 ft | 354 kts | 265° |
| 2026-04-22 18:42 | 48.09904 | 13.94825 | 15585 ft | 352 kts | 265° |
| 2026-04-22 18:42 | 48.09552 | 13.91216 | 15175 ft | 350 kts | 265° |
| 2026-04-22 18:43 | 48.09200 | 13.87620 | 14774 ft | 348 kts | 265° |
| 2026-04-22 18:43 | 48.08847 | 13.84042 | 14384 ft | 347 kts | 265° |
| 2026-04-22 18:43 | 48.08494 | 13.80482 | 13983 ft | 345 kts | 265° |
| 2026-04-22 18:43 | 48.08148 | 13.76992 | 13570 ft | 343 kts | 265° |
| 2026-04-22 18:44 | 48.07911 | 13.74622 | 13301 ft | 340 kts | 265° |
| 2026-04-22 18:44 | 48.07561 | 13.71131 | 12997 ft | 339 kts | 265° |
| 2026-04-22 18:44 | 48.07213 | 13.67651 | 12728 ft | 338 kts | 264° |
| 2026-04-22 18:44 | 48.06866 | 13.64192 | 12468 ft | 335 kts | 264° |
| 2026-04-22 18:45 | 48.06518 | 13.60753 | 12212 ft | 333 kts | 264° |
| 2026-04-22 18:45 | 48.06174 | 13.57350 | 11823 ft | 329 kts | 264° |
| 2026-04-22 18:45 | 48.05836 | 13.53982 | 11440 ft | 326 kts | 264° |
| 2026-04-22 18:45 | 48.05526 | 13.50642 | 11052 ft | 323 kts | 265° |
| 2026-04-22 18:46 | 48.05251 | 13.47335 | 10678 ft | 320 kts | 265° |
| 2026-04-22 18:46 | 48.04990 | 13.44049 | 10312 ft | 317 kts | 265° |
| 2026-04-22 18:46 | 48.04732 | 13.40799 | 9896 ft | 313 kts | 265° |
| 2026-04-22 18:46 | 48.04468 | 13.37578 | 9476 ft | 311 kts | 265° |
| 2026-04-22 18:47 | 48.04202 | 13.34381 | 9047 ft | 309 kts | 265° |
| 2026-04-22 18:47 | 48.03937 | 13.31212 | 8651 ft | 305 kts | 265° |
| 2026-04-22 18:47 | 48.03674 | 13.28139 | 8508 ft | 293 kts | 265° |
| 2026-04-22 18:47 | 48.03417 | 13.25160 | 8218 ft | 286 kts | 265° |
| 2026-04-22 18:48 | 48.03164 | 13.22233 | 7852 ft | 283 kts | 265° |
| 2026-04-22 18:48 | 48.02912 | 13.19321 | 7475 ft | 281 kts | 265° |
| 2026-04-22 18:48 | 48.02662 | 13.16435 | 7104 ft | 279 kts | 265° |
| 2026-04-22 18:48 | 48.02414 | 13.13578 | 6732 ft | 276 kts | 265° |
| 2026-04-22 18:49 | 48.02168 | 13.10748 | 6340 ft | 274 kts | 265° |
| 2026-04-22 18:49 | 48.01924 | 13.07971 | 5954 ft | 273 kts | 265° |
| 2026-04-22 18:49 | 48.01678 | 13.05182 | 5689 ft | 271 kts | 265° |
| 2026-04-22 18:49 | 48.01431 | 13.02398 | 5429 ft | 269 kts | 264° |
| 2026-04-22 18:50 | 48.01186 | 12.99675 | 5240 ft | 259 kts | 264° |
| 2026-04-22 18:50 | 48.00949 | 12.97070 | 5109 ft | 246 kts | 265° |
| 2026-04-22 18:50 | 48.00726 | 12.94598 | 4978 ft | 235 kts | 265° |
| 2026-04-22 18:50 | 48.00465 | 12.92243 | 4802 ft | 227 kts | 253° |
| 2026-04-22 18:51 | 47.99609 | 12.90318 | 4673 ft | 222 kts | 220° |
| 2026-04-22 18:51 | 47.98240 | 12.89392 | 4536 ft | 215 kts | 187° |
| 2026-04-22 18:51 | 47.96778 | 12.89495 | 4349 ft | 209 kts | 165° |
| 2026-04-22 18:51 | 47.95426 | 12.90194 | 4212 ft | 200 kts | 157° |
| 2026-04-22 18:52 | 47.94171 | 12.90980 | 4098 ft | 191 kts | 156° |
| 2026-04-22 18:52 | 47.92978 | 12.91739 | 4021 ft | 183 kts | 156° |
| 2026-04-22 18:52 | 47.91821 | 12.92475 | 3905 ft | 179 kts | 156° |
| 2026-04-22 18:52 | 47.90695 | 12.93191 | 3701 ft | 174 kts | 156° |
| 2026-04-22 18:53 | 47.89586 | 12.93896 | 3477 ft | 170 kts | 156° |
| 2026-04-22 18:53 | 47.88521 | 12.94572 | 3255 ft | 163 kts | 156° |
| 2026-04-22 18:53 | 47.87501 | 12.95219 | 3050 ft | 154 kts | 157° |
| 2026-04-22 18:53 | 47.86532 | 12.95834 | 2830 ft | 148 kts | 157° |
| 2026-04-22 18:54 | 47.85589 | 12.96437 | 2622 ft | 145 kts | 157° |
| 2026-04-22 18:54 | 47.84666 | 12.97021 | 2409 ft | 143 kts | 158° |
| 2026-04-22 18:54 | 47.83750 | 12.97599 | 2215 ft | 143 kts | 158° |
| 2026-04-22 18:54 | 47.82838 | 12.98174 | 2007 ft | 142 kts | 158° |
| 2026-04-22 18:55 | 47.81928 | 12.98750 | 1813 ft | 142 kts | 158° |
| 2026-04-22 18:55 | 47.81019 | 12.99328 | 1625 ft | 142 kts | 158° |
| 2026-04-22 18:55 | 47.80120 | 12.99898 | 1436 ft | 140 kts | 159° |
| 2026-04-22 18:55 | 47.79314 | 13.00403 | 1421 ft | 104 kts | 156° |
| 2026-04-22 18:56 | 47.78812 | 13.00721 | 1424 ft | 54 kts | 158° |
| 2026-04-22 18:56 | 47.78606 | 13.00848 | 1421 ft | 16 kts | 167° |
| 2026-04-22 18:56 | 47.78543 | 13.00772 | 1420 ft | 13 kts | 249° |
| 2026-04-22 18:56 | 47.78532 | 13.00659 | 1423 ft | 11 kts | 287° |
| 2026-04-22 18:57 | 47.78595 | 13.00594 | 1420 ft | 13 kts | 338° |
| 2026-04-22 18:57 | 47.78691 | 13.00533 | 1420 ft | 17 kts | 336° |
| 2026-04-22 18:57 | 47.78811 | 13.00457 | 1423 ft | 20 kts | 337° |
| 2026-04-22 18:57 | 47.78923 | 13.00385 | 1421 ft | 11 kts | 336° |
| 2026-04-22 18:58 | 47.78953 | 13.00288 | 1422 ft | 11 kts | 272° |
| 2026-04-22 18:58 | 47.78957 | 13.00166 | 1422 ft | 13 kts | 274° |
| 2026-04-22 18:58 | 47.78967 | 13.00073 | 1422 ft | 6 kts | 281° |
| 2026-04-22 18:58 | 47.78973 | 13.00034 | 1422 ft | 1 kts | 282° |
| 2026-04-22 18:59 | 47.78973 | 13.00029 | 1422 ft | 0 kts | 282° |